sensor_id;sensor_type;location;lat;lon;timestamp;P1;durP1;ratioP1;P2;durP2;ratioP2
46036;SDS011;31769;49.304;8.428;2023-01-23T03:04:22;27.27;;;19.05;;
46036;SDS011;31769;49.304;8.428;2023-01-23T03:07:23;27.55;;;19.05;;
46036;SDS011;31769;49.304;8.428;2023-01-23T03:10:23;28.25;;;19.95;;
46036;SDS011;31769;49.304;8.428;2023-01-23T03:13:24;25.55;;;20.55;;
46036;SDS011;31769;49.304;8.428;2023-01-23T03:16:25;23.75;;;19.20;;
46036;SDS011;31769;49.304;8.428;2023-01-23T03:19:26;23.77;;;18.75;;
46036;SDS011;31769;49.304;8.428;2023-01-23T03:22:27;25.92;;;19.38;;
46036;SDS011;31769;49.304;8.428;2023-01-23T03:25:27;24.90;;;19.75;;
46036;SDS011;31769;49.304;8.428;2023-01-23T03:28:28;25.27;;;19.60;;
46036;SDS011;31769;49.304;8.428;2023-01-23T03:31:48;26.13;;;18.33;;
46036;SDS011;31769;49.304;8.428;2023-01-23T03:34:49;22.25;;;17.85;;
46036;SDS011;31769;49.304;8.428;2023-01-23T03:37:51;22.80;;;18.02;;
46036;SDS011;31769;49.304;8.428;2023-01-23T03:40:52;21.83;;;17.95;;
46036;SDS011;31769;49.304;8.428;2023-01-23T03:44:11;23.98;;;17.90;;
46036;SDS011;31769;49.304;8.428;2023-01-23T03:47:12;22.02;;;17.65;;
46036;SDS011;31769;49.304;8.428;2023-01-23T03:50:13;22.33;;;17.23;;
46036;SDS011;31769;49.304;8.428;2023-01-23T03:53:14;21.63;;;17.90;;
46036;SDS011;31769;49.304;8.428;2023-01-23T03:56:15;20.40;;;15.95;;
46036;SDS011;31769;49.304;8.428;2023-01-23T03:59:16;23.63;;;16.50;;
46036;SDS011;31769;49.304;8.428;2023-01-23T04:02:16;19.77;;;16.13;;
46036;SDS011;31769;49.304;8.428;2023-01-23T04:05:17;23.40;;;17.30;;
46036;SDS011;31769;49.304;8.428;2023-01-23T04:08:18;21.88;;;17.10;;
46036;SDS011;31769;49.304;8.428;2023-01-23T04:11:19;23.45;;;17.88;;
46036;SDS011;31769;49.304;8.428;2023-01-23T04:14:21;23.13;;;18.13;;
46036;SDS011;31769;49.304;8.428;2023-01-23T04:17:22;22.17;;;17.48;;
46036;SDS011;31769;49.304;8.428;2023-01-23T04:20:22;27.17;;;18.75;;
46036;SDS011;31769;49.304;8.428;2023-01-23T04:23:25;25.17;;;18.73;;
46036;SDS011;31769;49.304;8.428;2023-01-23T04:26:26;23.50;;;18.48;;
46036;SDS011;31769;49.304;8.428;2023-01-23T04:29:27;22.73;;;17.23;;
46036;SDS011;31769;49.304;8.428;2023-01-23T04:32:27;23.33;;;18.48;;
46036;SDS011;31769;49.304;8.428;2023-01-23T04:35:28;22.45;;;17.20;;
46036;SDS011;31769;49.304;8.428;2023-01-23T04:38:29;22.58;;;17.83;;
46036;SDS011;31769;49.304;8.428;2023-01-23T04:41:38;23.05;;;18.65;;
46036;SDS011;31769;49.304;8.428;2023-01-23T04:44:46;23.33;;;18.13;;
46036;SDS011;31769;49.304;8.428;2023-01-23T04:48:10;23.48;;;17.70;;
46036;SDS011;31769;49.304;8.428;2023-01-23T04:51:11;23.35;;;17.75;;
46036;SDS011;31769;49.304;8.428;2023-01-23T04:54:12;23.40;;;17.50;;
46036;SDS011;31769;49.304;8.428;2023-01-23T04:57:14;22.85;;;17.52;;
46036;SDS011;31769;49.304;8.428;2023-01-23T05:00:15;21.88;;;17.48;;
46036;SDS011;31769;49.304;8.428;2023-01-23T05:03:16;41.97;;;30.67;;
46036;SDS011;31769;49.304;8.428;2023-01-23T05:06:19;21.98;;;17.10;;
46036;SDS011;31769;49.304;8.428;2023-01-23T05:09:20;22.08;;;16.58;;
46036;SDS011;31769;49.304;8.428;2023-01-23T05:12:25;20.75;;;16.13;;
46036;SDS011;31769;49.304;8.428;2023-01-23T05:15:26;19.50;;;15.57;;
46036;SDS011;31769;49.304;8.428;2023-01-23T05:18:26;21.65;;;16.05;;
46036;SDS011;31769;49.304;8.428;2023-01-23T05:21:29;19.13;;;15.70;;
46036;SDS011;31769;49.304;8.428;2023-01-23T05:24:30;28.25;;;21.27;;
46036;SDS011;31769;49.304;8.428;2023-01-23T05:27:31;21.98;;;16.45;;
46036;SDS011;31769;49.304;8.428;2023-01-23T05:30:33;18.02;;;14.50;;
46036;SDS011;31769;49.304;8.428;2023-01-23T05:33:48;19.52;;;15.55;;
46036;SDS011;31769;49.304;8.428;2023-01-23T05:36:49;18.83;;;15.30;;
46036;SDS011;31769;49.304;8.428;2023-01-23T05:39:50;21.08;;;16.15;;
46036;SDS011;31769;49.304;8.428;2023-01-23T05:42:52;20.63;;;16.02;;
46036;SDS011;31769;49.304;8.428;2023-01-23T05:46:10;20.70;;;16.40;;
46036;SDS011;31769;49.304;8.428;2023-01-23T05:49:23;22.15;;;17.10;;
46036;SDS011;31769;49.304;8.428;2023-01-23T05:52:25;20.92;;;16.10;;
46036;SDS011;31769;49.304;8.428;2023-01-23T05:55:26;20.70;;;16.38;;
46036;SDS011;31769;49.304;8.428;2023-01-23T05:58:28;21.15;;;16.98;;
46036;SDS011;31769;49.304;8.428;2023-01-23T06:01:58;23.08;;;16.65;;
46036;SDS011;31769;49.304;8.428;2023-01-23T06:05:31;21.25;;;16.17;;
46036;SDS011;31769;49.304;8.428;2023-01-23T06:08:44;24.08;;;16.52;;
46036;SDS011;31769;49.304;8.428;2023-01-23T06:11:44;23.40;;;16.33;;
46036;SDS011;31769;49.304;8.428;2023-01-23T06:14:45;21.05;;;16.08;;
46036;SDS011;31769;49.304;8.428;2023-01-23T06:17:47;22.77;;;16.70;;
46036;SDS011;31769;49.304;8.428;2023-01-23T06:20:48;24.13;;;16.38;;
46036;SDS011;31769;49.304;8.428;2023-01-23T06:23:48;19.85;;;15.93;;
46036;SDS011;31769;49.304;8.428;2023-01-23T06:26:50;21.80;;;16.88;;
46036;SDS011;31769;49.304;8.428;2023-01-23T06:29:51;22.35;;;17.13;;
46036;SDS011;31769;49.304;8.428;2023-01-23T06:32:52;24.10;;;17.35;;
46036;SDS011;31769;49.304;8.428;2023-01-23T06:36:00;24.15;;;18.58;;
46036;SDS011;31769;49.304;8.428;2023-01-23T06:39:01;23.60;;;17.10;;
46036;SDS011;31769;49.304;8.428;2023-01-23T06:42:09;24.10;;;17.25;;
46036;SDS011;31769;49.304;8.428;2023-01-23T06:45:15;27.08;;;19.55;;
46036;SDS011;31769;49.304;8.428;2023-01-23T06:48:16;27.02;;;18.67;;
46036;SDS011;31769;49.304;8.428;2023-01-23T06:51:17;26.17;;;19.02;;
46036;SDS011;31769;49.304;8.428;2023-01-23T06:54:19;24.13;;;18.13;;
46036;SDS011;31769;49.304;8.428;2023-01-23T06:57:22;24.67;;;17.80;;
46036;SDS011;31769;49.304;8.428;2023-01-23T07:00:23;25.52;;;18.35;;
46036;SDS011;31769;49.304;8.428;2023-01-23T07:03:27;27.30;;;17.90;;
46036;SDS011;31769;49.304;8.428;2023-01-23T07:06:29;26.02;;;17.17;;
46036;SDS011;31769;49.304;8.428;2023-01-23T07:09:30;26.98;;;18.77;;
46036;SDS011;31769;49.304;8.428;2023-01-23T07:15:40;26.33;;;18.63;;
46036;SDS011;31769;49.304;8.428;2023-01-23T07:18:41;28.38;;;18.83;;
46036;SDS011;31769;49.304;8.428;2023-01-23T07:21:43;27.45;;;18.90;;
46036;SDS011;31769;49.304;8.428;2023-01-23T07:24:44;31.30;;;19.13;;
46036;SDS011;31769;49.304;8.428;2023-01-23T07:27:44;25.20;;;18.88;;
46036;SDS011;31769;49.304;8.428;2023-01-23T07:30:45;28.73;;;19.45;;
46036;SDS011;31769;49.304;8.428;2023-01-23T07:33:46;27.60;;;18.10;;
46036;SDS011;31769;49.304;8.428;2023-01-23T07:36:47;26.88;;;18.67;;
46036;SDS011;31769;49.304;8.428;2023-01-23T07:39:47;29.02;;;18.98;;
46036;SDS011;31769;49.304;8.428;2023-01-23T07:42:49;26.50;;;17.67;;
46036;SDS011;31769;49.304;8.428;2023-01-23T07:45:50;25.92;;;18.13;;
46036;SDS011;31769;49.304;8.428;2023-01-23T07:48:51;25.15;;;18.05;;
46036;SDS011;31769;49.304;8.428;2023-01-23T07:51:51;23.30;;;17.50;;
46036;SDS011;31769;49.304;8.428;2023-01-23T07:54:52;27.45;;;18.80;;
46036;SDS011;31769;49.304;8.428;2023-01-23T07:57:54;24.33;;;17.67;;
46036;SDS011;31769;49.304;8.428;2023-01-23T08:00:54;24.92;;;18.45;;
46036;SDS011;31769;49.304;8.428;2023-01-23T08:03:55;23.23;;;18.10;;
46036;SDS011;31769;49.304;8.428;2023-01-23T08:06:56;24.23;;;17.42;;
46036;SDS011;31769;49.304;8.428;2023-01-23T08:09:56;21.88;;;16.63;;
46036;SDS011;31769;49.304;8.428;2023-01-23T08:12:57;27.42;;;18.15;;
46036;SDS011;31769;49.304;8.428;2023-01-23T08:15:58;22.45;;;18.38;;
46036;SDS011;31769;49.304;8.428;2023-01-23T08:18:58;24.13;;;17.75;;
46036;SDS011;31769;49.304;8.428;2023-01-23T08:21:59;24.73;;;18.88;;
46036;SDS011;31769;49.304;8.428;2023-01-23T08:25:00;26.98;;;19.20;;
46036;SDS011;31769;49.304;8.428;2023-01-23T08:28:00;26.77;;;17.67;;
46036;SDS011;31769;49.304;8.428;2023-01-23T08:31:02;25.15;;;19.08;;
46036;SDS011;31769;49.304;8.428;2023-01-23T08:34:04;23.60;;;18.38;;
46036;SDS011;31769;49.304;8.428;2023-01-23T08:37:05;25.45;;;18.55;;
46036;SDS011;31769;49.304;8.428;2023-01-23T08:44:22;23.75;;;17.63;;
46036;SDS011;31769;49.304;8.428;2023-01-23T08:47:23;23.10;;;17.60;;
46036;SDS011;31769;49.304;8.428;2023-01-23T08:50:24;22.88;;;17.83;;
46036;SDS011;31769;49.304;8.428;2023-01-23T08:53:24;21.70;;;17.55;;
46036;SDS011;31769;49.304;8.428;2023-01-23T08:56:25;22.20;;;17.45;;
46036;SDS011;31769;49.304;8.428;2023-01-23T08:59:27;22.42;;;17.85;;
46036;SDS011;31769;49.304;8.428;2023-01-23T09:02:27;21.85;;;17.05;;
46036;SDS011;31769;49.304;8.428;2023-01-23T09:05:29;22.38;;;17.90;;
46036;SDS011;31769;49.304;8.428;2023-01-23T09:08:30;22.58;;;17.73;;
46036;SDS011;31769;49.304;8.428;2023-01-23T09:11:31;24.23;;;17.27;;
46036;SDS011;31769;49.304;8.428;2023-01-23T09:14:32;23.20;;;17.45;;
46036;SDS011;31769;49.304;8.428;2023-01-23T09:17:32;23.48;;;17.02;;
46036;SDS011;31769;49.304;8.428;2023-01-23T09:20:33;24.25;;;19.23;;
46036;SDS011;31769;49.304;8.428;2023-01-23T09:23:34;24.05;;;18.88;;
46036;SDS011;31769;49.304;8.428;2023-01-23T09:26:35;24.33;;;18.40;;
46036;SDS011;31769;49.304;8.428;2023-01-23T09:29:36;23.02;;;18.23;;
46036;SDS011;31769;49.304;8.428;2023-01-23T09:32:37;22.98;;;18.50;;
46036;SDS011;31769;49.304;8.428;2023-01-23T09:35:37;23.80;;;18.83;;
46036;SDS011;31769;49.304;8.428;2023-01-23T09:38:38;23.50;;;18.38;;
46036;SDS011;31769;49.304;8.428;2023-01-23T09:46:04;23.45;;;18.45;;
46036;SDS011;31769;49.304;8.428;2023-01-23T09:52:30;23.52;;;18.85;;
46036;SDS011;31769;49.304;8.428;2023-01-23T10:06:20;24.67;;;18.98;;
46036;SDS011;31769;49.304;8.428;2023-01-23T10:09:29;25.67;;;20.45;;
46036;SDS011;31769;49.304;8.428;2023-01-23T10:12:52;27.10;;;20.10;;
46036;SDS011;31769;49.304;8.428;2023-01-23T10:19:56;25.70;;;18.27;;
46036;SDS011;31769;49.304;8.428;2023-01-23T10:26:40;25.63;;;17.15;;
46036;SDS011;31769;49.304;8.428;2023-01-23T10:30:04;23.35;;;17.92;;
46036;SDS011;31769;49.304;8.428;2023-01-23T10:33:15;23.85;;;17.67;;
46036;SDS011;31769;49.304;8.428;2023-01-23T10:36:22;21.90;;;17.63;;
46036;SDS011;31769;49.304;8.428;2023-01-23T10:39:40;24.02;;;18.48;;
46036;SDS011;31769;49.304;8.428;2023-01-23T10:42:52;22.25;;;16.80;;
46036;SDS011;31769;49.304;8.428;2023-01-23T10:45:52;20.80;;;16.42;;
46036;SDS011;31769;49.304;8.428;2023-01-23T10:48:53;21.10;;;17.17;;
46036;SDS011;31769;49.304;8.428;2023-01-23T10:51:54;20.75;;;16.33;;
46036;SDS011;31769;49.304;8.428;2023-01-23T10:54:55;20.58;;;16.30;;
46036;SDS011;31769;49.304;8.428;2023-01-23T10:57:57;20.88;;;16.08;;
46036;SDS011;31769;49.304;8.428;2023-01-23T11:01:01;21.10;;;16.50;;
46036;SDS011;31769;49.304;8.428;2023-01-23T11:04:25;20.67;;;16.67;;
46036;SDS011;31769;49.304;8.428;2023-01-23T11:10:27;21.17;;;15.73;;
46036;SDS011;31769;49.304;8.428;2023-01-23T11:13:28;20.88;;;16.17;;
46036;SDS011;31769;49.304;8.428;2023-01-23T11:16:30;20.75;;;16.23;;
46036;SDS011;31769;49.304;8.428;2023-01-23T11:19:31;20.27;;;16.17;;
46036;SDS011;31769;49.304;8.428;2023-01-23T11:22:35;21.10;;;16.60;;
46036;SDS011;31769;49.304;8.428;2023-01-23T11:25:38;18.73;;;15.07;;
46036;SDS011;31769;49.304;8.428;2023-01-23T11:28:47;18.98;;;15.38;;
46036;SDS011;31769;49.304;8.428;2023-01-23T11:31:49;18.45;;;15.23;;
46036;SDS011;31769;49.304;8.428;2023-01-23T11:35:02;17.50;;;14.67;;
46036;SDS011;31769;49.304;8.428;2023-01-23T11:41:15;16.60;;;13.88;;
46036;SDS011;31769;49.304;8.428;2023-01-23T11:44:16;16.30;;;12.93;;
46036;SDS011;31769;49.304;8.428;2023-01-23T11:47:30;16.83;;;13.43;;
46036;SDS011;31769;49.304;8.428;2023-01-23T11:50:50;19.50;;;13.23;;
46036;SDS011;31769;49.304;8.428;2023-01-23T11:57:41;16.65;;;12.90;;
46036;SDS011;31769;49.304;8.428;2023-01-23T12:01:14;20.08;;;14.13;;
46036;SDS011;31769;49.304;8.428;2023-01-23T12:11:21;19.40;;;13.68;;
46036;SDS011;31769;49.304;8.428;2023-01-23T12:20:59;17.92;;;13.27;;
46036;SDS011;31769;49.304;8.428;2023-01-23T12:24:13;16.90;;;13.73;;
46036;SDS011;31769;49.304;8.428;2023-01-23T12:43:56;21.23;;;15.82;;
46036;SDS011;31769;49.304;8.428;2023-01-23T12:47:07;18.15;;;15.18;;
46036;SDS011;31769;49.304;8.428;2023-01-23T12:50:15;20.65;;;16.42;;
46036;SDS011;31769;49.304;8.428;2023-01-23T12:53:17;21.27;;;16.77;;
46036;SDS011;31769;49.304;8.428;2023-01-23T12:56:22;21.70;;;16.63;;
46036;SDS011;31769;49.304;8.428;2023-01-23T12:59:30;21.40;;;16.90;;
46036;SDS011;31769;49.304;8.428;2023-01-23T13:09:59;23.55;;;16.30;;
46036;SDS011;31769;49.304;8.428;2023-01-23T13:13:15;21.17;;;15.73;;
46036;SDS011;31769;49.304;8.428;2023-01-23T13:16:18;21.17;;;16.35;;
46036;SDS011;31769;49.304;8.428;2023-01-23T13:19:21;20.27;;;15.68;;
46036;SDS011;31769;49.304;8.428;2023-01-23T13:22:44;20.90;;;16.20;;
46036;SDS011;31769;49.304;8.428;2023-01-23T13:25:44;21.63;;;16.23;;
46036;SDS011;31769;49.304;8.428;2023-01-23T13:28:46;21.63;;;16.38;;
46036;SDS011;31769;49.304;8.428;2023-01-23T13:31:49;21.83;;;16.65;;
46036;SDS011;31769;49.304;8.428;2023-01-23T13:34:51;20.58;;;16.70;;
46036;SDS011;31769;49.304;8.428;2023-01-23T13:37:52;23.30;;;18.35;;
46036;SDS011;31769;49.304;8.428;2023-01-23T13:44:26;20.73;;;16.17;;
46036;SDS011;31769;49.304;8.428;2023-01-23T13:47:36;22.10;;;17.63;;
46036;SDS011;31769;49.304;8.428;2023-01-23T13:51:10;23.08;;;16.13;;
46036;SDS011;31769;49.304;8.428;2023-01-23T13:57:43;21.13;;;16.98;;
46036;SDS011;31769;49.304;8.428;2023-01-23T14:00:49;22.25;;;16.98;;
46036;SDS011;31769;49.304;8.428;2023-01-23T14:04:22;20.55;;;16.25;;
46036;SDS011;31769;49.304;8.428;2023-01-23T14:07:44;20.17;;;16.00;;
46036;SDS011;31769;49.304;8.428;2023-01-23T14:10:47;20.77;;;16.73;;
46036;SDS011;31769;49.304;8.428;2023-01-23T14:13:49;23.55;;;17.92;;
46036;SDS011;31769;49.304;8.428;2023-01-23T14:17:11;18.35;;;15.52;;
46036;SDS011;31769;49.304;8.428;2023-01-23T14:20:15;20.02;;;15.82;;
46036;SDS011;31769;49.304;8.428;2023-01-23T14:23:19;22.70;;;16.63;;
46036;SDS011;31769;49.304;8.428;2023-01-23T14:26:35;21.40;;;16.00;;
46036;SDS011;31769;49.304;8.428;2023-01-23T14:29:56;20.42;;;14.85;;
46036;SDS011;31769;49.304;8.428;2023-01-23T14:32:57;18.83;;;14.75;;
46036;SDS011;31769;49.304;8.428;2023-01-23T14:35:58;17.35;;;14.80;;
46036;SDS011;31769;49.304;8.428;2023-01-23T14:38:59;19.17;;;14.65;;
46036;SDS011;31769;49.304;8.428;2023-01-23T14:42:01;20.33;;;15.40;;
46036;SDS011;31769;49.304;8.428;2023-01-23T14:45:03;19.02;;;15.05;;
46036;SDS011;31769;49.304;8.428;2023-01-23T14:48:04;17.85;;;14.32;;
46036;SDS011;31769;49.304;8.428;2023-01-23T14:54:26;17.58;;;13.95;;
46036;SDS011;31769;49.304;8.428;2023-01-23T14:57:27;16.50;;;13.55;;
46036;SDS011;31769;49.304;8.428;2023-01-23T15:00:29;13.57;;;12.18;;
46036;SDS011;31769;49.304;8.428;2023-01-23T15:03:41;12.65;;;11.35;;
46036;SDS011;31769;49.304;8.428;2023-01-23T15:06:48;12.98;;;11.07;;
46036;SDS011;31769;49.304;8.428;2023-01-23T15:09:55;12.88;;;11.50;;
46036;SDS011;31769;49.304;8.428;2023-01-23T15:12:57;14.80;;;12.15;;
46036;SDS011;31769;49.304;8.428;2023-01-23T15:16:17;17.58;;;13.23;;
46036;SDS011;31769;49.304;8.428;2023-01-23T15:19:22;15.55;;;13.85;;
46036;SDS011;31769;49.304;8.428;2023-01-23T15:22:25;14.85;;;13.32;;
46036;SDS011;31769;49.304;8.428;2023-01-23T15:25:31;14.60;;;13.07;;
46036;SDS011;31769;49.304;8.428;2023-01-23T15:31:54;17.20;;;14.00;;
46036;SDS011;31769;49.304;8.428;2023-01-23T15:34:56;17.15;;;14.38;;
46036;SDS011;31769;49.304;8.428;2023-01-23T15:38:15;17.65;;;14.63;;
46036;SDS011;31769;49.304;8.428;2023-01-23T15:41:16;17.80;;;14.88;;
46036;SDS011;31769;49.304;8.428;2023-01-23T15:44:18;16.92;;;14.73;;
46036;SDS011;31769;49.304;8.428;2023-01-23T15:47:20;19.98;;;15.05;;
46036;SDS011;31769;49.304;8.428;2023-01-23T15:50:21;17.17;;;14.30;;
46036;SDS011;31769;49.304;8.428;2023-01-23T15:53:22;18.08;;;15.10;;
46036;SDS011;31769;49.304;8.428;2023-01-23T15:56:32;17.85;;;14.90;;
46036;SDS011;31769;49.304;8.428;2023-01-23T15:59:34;18.23;;;15.07;;
46036;SDS011;31769;49.304;8.428;2023-01-23T16:02:35;17.98;;;15.07;;
46036;SDS011;31769;49.304;8.428;2023-01-23T16:05:36;18.05;;;14.93;;
46036;SDS011;31769;49.304;8.428;2023-01-23T16:08:37;19.25;;;16.10;;
46036;SDS011;31769;49.304;8.428;2023-01-23T16:11:38;19.90;;;15.98;;
46036;SDS011;31769;49.304;8.428;2023-01-23T16:14:39;19.13;;;15.30;;
46036;SDS011;31769;49.304;8.428;2023-01-23T16:17:39;21.30;;;16.20;;
46036;SDS011;31769;49.304;8.428;2023-01-23T16:20:41;18.65;;;14.85;;
46036;SDS011;31769;49.304;8.428;2023-01-23T16:23:44;21.65;;;16.88;;
46036;SDS011;31769;49.304;8.428;2023-01-23T16:26:46;22.92;;;17.13;;
46036;SDS011;31769;49.304;8.428;2023-01-23T16:29:52;21.20;;;16.67;;
46036;SDS011;31769;49.304;8.428;2023-01-23T16:33:05;21.40;;;16.35;;
46036;SDS011;31769;49.304;8.428;2023-01-23T16:36:06;22.25;;;17.58;;
46036;SDS011;31769;49.304;8.428;2023-01-23T16:39:18;23.65;;;17.88;;
46036;SDS011;31769;49.304;8.428;2023-01-23T16:42:22;23.88;;;17.58;;
46036;SDS011;31769;49.304;8.428;2023-01-23T16:45:33;26.67;;;18.83;;
46036;SDS011;31769;49.304;8.428;2023-01-23T16:48:34;26.95;;;20.92;;
46036;SDS011;31769;49.304;8.428;2023-01-23T16:51:35;26.67;;;20.02;;
46036;SDS011;31769;49.304;8.428;2023-01-23T16:54:36;25.95;;;19.83;;
46036;SDS011;31769;49.304;8.428;2023-01-23T16:57:39;26.27;;;20.08;;
46036;SDS011;31769;49.304;8.428;2023-01-23T17:00:40;32.78;;;23.38;;
46036;SDS011;31769;49.304;8.428;2023-01-23T17:03:41;35.58;;;24.33;;
46036;SDS011;31769;49.304;8.428;2023-01-23T17:06:43;45.28;;;30.15;;
46036;SDS011;31769;49.304;8.428;2023-01-23T17:09:47;46.88;;;31.50;;
46036;SDS011;31769;49.304;8.428;2023-01-23T17:12:49;39.33;;;25.88;;
46036;SDS011;31769;49.304;8.428;2023-01-23T17:15:53;38.17;;;24.80;;
46036;SDS011;31769;49.304;8.428;2023-01-23T17:18:56;30.88;;;23.85;;
46036;SDS011;31769;49.304;8.428;2023-01-23T17:22:00;30.95;;;22.92;;
46036;SDS011;31769;49.304;8.428;2023-01-23T17:25:02;30.63;;;22.92;;
46036;SDS011;31769;49.304;8.428;2023-01-23T17:28:03;33.60;;;23.35;;
46036;SDS011;31769;49.304;8.428;2023-01-23T17:31:04;32.60;;;24.20;;
46036;SDS011;31769;49.304;8.428;2023-01-23T17:34:05;33.15;;;25.17;;
46036;SDS011;31769;49.304;8.428;2023-01-23T17:37:15;36.40;;;27.60;;
46036;SDS011;31769;49.304;8.428;2023-01-23T17:43:19;36.38;;;29.40;;
46036;SDS011;31769;49.304;8.428;2023-01-23T17:46:24;36.42;;;27.27;;
46036;SDS011;31769;49.304;8.428;2023-01-23T17:56:47;44.13;;;31.35;;
46036;SDS011;31769;49.304;8.428;2023-01-23T17:59:48;36.38;;;28.27;;
46036;SDS011;31769;49.304;8.428;2023-01-23T18:02:56;37.25;;;28.50;;
46036;SDS011;31769;49.304;8.428;2023-01-23T18:05:58;33.13;;;25.63;;
46036;SDS011;31769;49.304;8.428;2023-01-23T18:08:58;33.58;;;25.80;;
46036;SDS011;31769;49.304;8.428;2023-01-23T18:11:59;37.22;;;27.98;;
46036;SDS011;31769;49.304;8.428;2023-01-23T18:15:10;37.05;;;28.25;;
46036;SDS011;31769;49.304;8.428;2023-01-23T18:18:37;36.17;;;27.50;;
46036;SDS011;31769;49.304;8.428;2023-01-23T18:21:39;37.40;;;27.80;;
46036;SDS011;31769;49.304;8.428;2023-01-23T18:24:40;36.00;;;27.05;;
46036;SDS011;31769;49.304;8.428;2023-01-23T18:27:41;37.60;;;27.10;;
46036;SDS011;31769;49.304;8.428;2023-01-23T18:34:05;32.47;;;23.90;;
46036;SDS011;31769;49.304;8.428;2023-01-23T18:40:50;30.50;;;23.67;;
46036;SDS011;31769;49.304;8.428;2023-01-23T18:44:17;31.15;;;22.95;;
46036;SDS011;31769;49.304;8.428;2023-01-23T18:47:23;28.52;;;23.10;;
46036;SDS011;31769;49.304;8.428;2023-01-23T18:50:24;33.05;;;24.40;;
46036;SDS011;31769;49.304;8.428;2023-01-23T18:53:34;36.17;;;25.95;;
46036;SDS011;31769;49.304;8.428;2023-01-23T18:56:50;29.33;;;22.85;;
46036;SDS011;31769;49.304;8.428;2023-01-23T19:03:41;27.37;;;19.70;;
46036;SDS011;31769;49.304;8.428;2023-01-23T19:06:44;27.65;;;19.13;;
46036;SDS011;31769;49.304;8.428;2023-01-23T19:09:46;23.48;;;19.35;;
46036;SDS011;31769;49.304;8.428;2023-01-23T19:16:12;27.70;;;20.67;;
46036;SDS011;31769;49.304;8.428;2023-01-23T19:23:20;24.88;;;17.25;;
46036;SDS011;31769;49.304;8.428;2023-01-23T19:26:40;24.38;;;17.63;;
46036;SDS011;31769;49.304;8.428;2023-01-23T19:29:41;19.33;;;16.60;;
46036;SDS011;31769;49.304;8.428;2023-01-23T19:37:04;20.83;;;17.02;;
46036;SDS011;31769;49.304;8.428;2023-01-23T19:40:07;21.08;;;16.70;;
46036;SDS011;31769;49.304;8.428;2023-01-23T19:43:13;22.23;;;17.70;;
46036;SDS011;31769;49.304;8.428;2023-01-23T19:46:15;21.25;;;17.05;;
46036;SDS011;31769;49.304;8.428;2023-01-23T19:49:17;23.73;;;17.80;;
46036;SDS011;31769;49.304;8.428;2023-01-23T19:52:18;21.85;;;16.98;;
46036;SDS011;31769;49.304;8.428;2023-01-23T19:55:26;20.45;;;16.90;;
46036;SDS011;31769;49.304;8.428;2023-01-23T19:58:31;21.83;;;17.15;;
46036;SDS011;31769;49.304;8.428;2023-01-23T20:01:33;21.20;;;16.10;;
46036;SDS011;31769;49.304;8.428;2023-01-23T20:04:46;23.55;;;18.42;;
46036;SDS011;31769;49.304;8.428;2023-01-23T20:07:47;25.38;;;18.40;;
46036;SDS011;31769;49.304;8.428;2023-01-23T20:10:51;26.17;;;18.92;;
46036;SDS011;31769;49.304;8.428;2023-01-23T20:13:51;23.23;;;17.58;;
46036;SDS011;31769;49.304;8.428;2023-01-23T20:16:52;20.90;;;17.45;;
46036;SDS011;31769;49.304;8.428;2023-01-23T20:19:53;24.67;;;19.30;;
46036;SDS011;31769;49.304;8.428;2023-01-23T20:22:53;25.13;;;19.33;;
46036;SDS011;31769;49.304;8.428;2023-01-23T20:25:58;28.38;;;20.92;;
46036;SDS011;31769;49.304;8.428;2023-01-23T20:28:59;26.42;;;20.20;;
46036;SDS011;31769;49.304;8.428;2023-01-23T20:32:00;28.42;;;20.83;;
46036;SDS011;31769;49.304;8.428;2023-01-23T20:35:01;25.85;;;19.05;;
46036;SDS011;31769;49.304;8.428;2023-01-23T20:38:02;26.67;;;20.48;;
46036;SDS011;31769;49.304;8.428;2023-01-23T20:41:03;27.75;;;21.15;;
46036;SDS011;31769;49.304;8.428;2023-01-23T20:44:11;30.75;;;22.25;;
46036;SDS011;31769;49.304;8.428;2023-01-23T20:47:12;29.00;;;21.67;;
46036;SDS011;31769;49.304;8.428;2023-01-23T20:50:13;27.10;;;20.63;;
46036;SDS011;31769;49.304;8.428;2023-01-23T20:53:14;30.20;;;21.30;;
46036;SDS011;31769;49.304;8.428;2023-01-23T20:56:30;27.73;;;21.83;;
46036;SDS011;31769;49.304;8.428;2023-01-23T20:59:30;28.38;;;21.63;;
46036;SDS011;31769;49.304;8.428;2023-01-23T21:02:31;26.35;;;20.85;;
46036;SDS011;31769;49.304;8.428;2023-01-23T21:05:33;26.98;;;21.73;;
46036;SDS011;31769;49.304;8.428;2023-01-23T21:08:34;25.38;;;20.75;;
46036;SDS011;31769;49.304;8.428;2023-01-23T21:11:35;28.45;;;20.92;;
46036;SDS011;31769;49.304;8.428;2023-01-23T21:14:36;28.02;;;21.13;;
46036;SDS011;31769;49.304;8.428;2023-01-23T21:17:37;24.63;;;19.48;;
46036;SDS011;31769;49.304;8.428;2023-01-23T21:20:37;23.65;;;19.42;;
46036;SDS011;31769;49.304;8.428;2023-01-23T21:23:38;25.30;;;19.98;;
46036;SDS011;31769;49.304;8.428;2023-01-23T21:26:39;27.92;;;21.05;;
46036;SDS011;31769;49.304;8.428;2023-01-23T21:29:40;26.67;;;20.83;;
46036;SDS011;31769;49.304;8.428;2023-01-23T21:32:41;29.25;;;21.00;;
46036;SDS011;31769;49.304;8.428;2023-01-23T21:35:46;30.73;;;20.80;;
46036;SDS011;31769;49.304;8.428;2023-01-23T21:41:50;27.30;;;20.27;;
46036;SDS011;31769;49.304;8.428;2023-01-23T21:44:51;28.77;;;20.55;;
46036;SDS011;31769;49.304;8.428;2023-01-23T21:47:55;27.45;;;21.42;;
46036;SDS011;31769;49.304;8.428;2023-01-23T21:54:07;29.45;;;21.67;;
46036;SDS011;31769;49.304;8.428;2023-01-23T21:57:08;28.42;;;21.02;;
46036;SDS011;31769;49.304;8.428;2023-01-23T22:00:09;27.38;;;20.65;;
46036;SDS011;31769;49.304;8.428;2023-01-23T22:03:28;28.33;;;20.95;;
46036;SDS011;31769;49.304;8.428;2023-01-23T22:06:34;31.73;;;21.55;;
46036;SDS011;31769;49.304;8.428;2023-01-23T22:09:36;28.17;;;20.67;;
46036;SDS011;31769;49.304;8.428;2023-01-23T22:12:37;27.90;;;20.90;;
46036;SDS011;31769;49.304;8.428;2023-01-23T22:15:37;25.27;;;20.27;;
46036;SDS011;31769;49.304;8.428;2023-01-23T22:18:38;26.63;;;20.95;;
46036;SDS011;31769;49.304;8.428;2023-01-23T22:21:38;28.88;;;20.98;;
46036;SDS011;31769;49.304;8.428;2023-01-23T22:24:39;27.77;;;21.58;;
46036;SDS011;31769;49.304;8.428;2023-01-23T22:27:40;27.45;;;20.77;;
46036;SDS011;31769;49.304;8.428;2023-01-23T22:30:40;27.92;;;20.83;;
46036;SDS011;31769;49.304;8.428;2023-01-23T22:33:42;32.85;;;21.80;;
46036;SDS011;31769;49.304;8.428;2023-01-23T22:36:46;27.33;;;21.30;;
46036;SDS011;31769;49.304;8.428;2023-01-23T22:39:47;28.45;;;21.33;;
46036;SDS011;31769;49.304;8.428;2023-01-23T22:42:48;28.65;;;21.70;;
46036;SDS011;31769;49.304;8.428;2023-01-23T22:45:48;27.50;;;21.50;;
46036;SDS011;31769;49.304;8.428;2023-01-23T22:48:49;29.35;;;20.98;;
46036;SDS011;31769;49.304;8.428;2023-01-23T22:55:14;26.70;;;20.48;;
46036;SDS011;31769;49.304;8.428;2023-01-23T22:58:14;27.98;;;21.30;;
46036;SDS011;31769;49.304;8.428;2023-01-23T23:01:15;28.55;;;21.73;;
46036;SDS011;31769;49.304;8.428;2023-01-23T23:04:17;28.13;;;21.23;;
46036;SDS011;31769;49.304;8.428;2023-01-23T23:07:18;27.55;;;20.95;;
46036;SDS011;31769;49.304;8.428;2023-01-23T23:10:18;31.33;;;20.85;;
46036;SDS011;31769;49.304;8.428;2023-01-23T23:13:19;29.15;;;20.85;;
46036;SDS011;31769;49.304;8.428;2023-01-23T23:16:20;28.35;;;21.33;;